sensor_id;sensor_type;location;lat;lon;timestamp;temperature;humidity
19892;DHT22;10108;50.142;8.724;2023-01-24T00:00:10;3.50;99.90
19892;DHT22;10108;50.142;8.724;2023-01-24T00:02:37;3.50;99.90
19892;DHT22;10108;50.142;8.724;2023-01-24T00:05:04;3.50;99.90
19892;DHT22;10108;50.142;8.724;2023-01-24T00:07:30;3.50;99.90
19892;DHT22;10108;50.142;8.724;2023-01-24T00:09:56;3.60;99.90
19892;DHT22;10108;50.142;8.724;2023-01-24T00:12:22;3.60;99.90
19892;DHT22;10108;50.142;8.724;2023-01-24T00:14:49;3.60;99.90
19892;DHT22;10108;50.142;8.724;2023-01-24T00:17:15;3.60;99.90
19892;DHT22;10108;50.142;8.724;2023-01-24T00:19:41;3.60;99.90
19892;DHT22;10108;50.142;8.724;2023-01-24T00:22:07;3.60;99.90
19892;DHT22;10108;50.142;8.724;2023-01-24T00:24:33;3.60;99.90
19892;DHT22;10108;50.142;8.724;2023-01-24T00:27:01;3.60;99.90
19892;DHT22;10108;50.142;8.724;2023-01-24T00:29:27;3.60;99.90
19892;DHT22;10108;50.142;8.724;2023-01-24T00:31:53;3.60;99.90
19892;DHT22;10108;50.142;8.724;2023-01-24T00:34:19;3.50;99.90
19892;DHT22;10108;50.142;8.724;2023-01-24T00:36:46;3.60;99.90
19892;DHT22;10108;50.142;8.724;2023-01-24T00:39:12;3.60;99.90
19892;DHT22;10108;50.142;8.724;2023-01-24T00:41:38;3.60;99.90
19892;DHT22;10108;50.142;8.724;2023-01-24T00:44:04;3.50;99.90
19892;DHT22;10108;50.142;8.724;2023-01-24T00:46:31;3.50;99.90
19892;DHT22;10108;50.142;8.724;2023-01-24T00:48:57;3.50;99.90
19892;DHT22;10108;50.142;8.724;2023-01-24T00:51:24;3.50;99.90
19892;DHT22;10108;50.142;8.724;2023-01-24T00:53:50;3.60;99.90
19892;DHT22;10108;50.142;8.724;2023-01-24T00:56:17;3.60;99.90
19892;DHT22;10108;50.142;8.724;2023-01-24T00:58:43;3.60;99.90
19892;DHT22;10108;50.142;8.724;2023-01-24T01:01:09;3.50;99.90
19892;DHT22;10108;50.142;8.724;2023-01-24T01:03:36;3.50;99.90
19892;DHT22;10108;50.142;8.724;2023-01-24T01:06:10;3.50;99.90
19892;DHT22;10108;50.142;8.724;2023-01-24T01:08:37;3.50;99.90
19892;DHT22;10108;50.142;8.724;2023-01-24T01:11:04;3.50;99.90
19892;DHT22;10108;50.142;8.724;2023-01-24T01:13:30;3.50;99.90
19892;DHT22;10108;50.142;8.724;2023-01-24T01:16:10;3.40;99.90
19892;DHT22;10108;50.142;8.724;2023-01-24T01:18:38;3.40;99.90
19892;DHT22;10108;50.142;8.724;2023-01-24T01:21:05;3.50;99.90
19892;DHT22;10108;50.142;8.724;2023-01-24T01:23:31;3.50;99.90
19892;DHT22;10108;50.142;8.724;2023-01-24T01:26:02;3.50;99.90
19892;DHT22;10108;50.142;8.724;2023-01-24T01:28:29;3.50;99.90
19892;DHT22;10108;50.142;8.724;2023-01-24T01:30:55;3.50;99.90
19892;DHT22;10108;50.142;8.724;2023-01-24T01:33:21;3.40;99.90
19892;DHT22;10108;50.142;8.724;2023-01-24T01:35:48;3.40;99.90
19892;DHT22;10108;50.142;8.724;2023-01-24T01:38:16;3.40;99.90
19892;DHT22;10108;50.142;8.724;2023-01-24T01:40:42;3.40;99.90
19892;DHT22;10108;50.142;8.724;2023-01-24T01:43:15;3.40;99.90
19892;DHT22;10108;50.142;8.724;2023-01-24T01:45:47;3.40;99.90
19892;DHT22;10108;50.142;8.724;2023-01-24T01:53:33;3.50;99.90
19892;DHT22;10108;50.142;8.724;2023-01-24T01:56:07;3.60;99.90
19892;DHT22;10108;50.142;8.724;2023-01-24T01:58:35;3.60;99.90
19892;DHT22;10108;50.142;8.724;2023-01-24T02:01:02;3.50;99.90
19892;DHT22;10108;50.142;8.724;2023-01-24T02:03:52;3.50;99.90
19892;DHT22;10108;50.142;8.724;2023-01-24T02:06:33;3.50;99.90
19892;DHT22;10108;50.142;8.724;2023-01-24T02:09:04;3.50;99.90
19892;DHT22;10108;50.142;8.724;2023-01-24T02:11:33;3.50;99.90
19892;DHT22;10108;50.142;8.724;2023-01-24T02:14:11;3.50;99.90
19892;DHT22;10108;50.142;8.724;2023-01-24T02:16:57;3.40;99.90
19892;DHT22;10108;50.142;8.724;2023-01-24T02:22:00;3.40;99.90
19892;DHT22;10108;50.142;8.724;2023-01-24T02:24:37;3.40;99.90
19892;DHT22;10108;50.142;8.724;2023-01-24T02:27:06;3.30;99.90
19892;DHT22;10108;50.142;8.724;2023-01-24T02:29:32;3.40;99.90
19892;DHT22;10108;50.142;8.724;2023-01-24T02:32:00;3.30;99.90
19892;DHT22;10108;50.142;8.724;2023-01-24T02:34:28;3.30;99.90
19892;DHT22;10108;50.142;8.724;2023-01-24T02:37:09;3.30;99.90
19892;DHT22;10108;50.142;8.724;2023-01-24T02:42:31;3.30;99.90
19892;DHT22;10108;50.142;8.724;2023-01-24T02:45:25;3.30;99.90
19892;DHT22;10108;50.142;8.724;2023-01-24T02:47:53;3.30;99.90
19892;DHT22;10108;50.142;8.724;2023-01-24T02:50:22;3.30;99.90
19892;DHT22;10108;50.142;8.724;2023-01-24T02:52:49;3.30;99.90
19892;DHT22;10108;50.142;8.724;2023-01-24T02:55:35;3.30;99.90
19892;DHT22;10108;50.142;8.724;2023-01-24T02:58:25;3.30;99.90
19892;DHT22;10108;50.142;8.724;2023-01-24T03:00:51;3.30;99.90
19892;DHT22;10108;50.142;8.724;2023-01-24T03:03:18;3.30;99.90
19892;DHT22;10108;50.142;8.724;2023-01-24T03:05:44;3.30;99.90
19892;DHT22;10108;50.142;8.724;2023-01-24T03:08:27;3.30;99.90
19892;DHT22;10108;50.142;8.724;2023-01-24T03:10:57;3.30;99.90
19892;DHT22;10108;50.142;8.724;2023-01-24T03:13:25;3.30;99.90
19892;DHT22;10108;50.142;8.724;2023-01-24T03:16:12;3.30;99.90
19892;DHT22;10108;50.142;8.724;2023-01-24T03:18:57;3.40;99.90
19892;DHT22;10108;50.142;8.724;2023-01-24T03:21:41;3.40;99.90
19892;DHT22;10108;50.142;8.724;2023-01-24T03:24:26;3.50;99.90
19892;DHT22;10108;50.142;8.724;2023-01-24T03:27:12;3.60;99.90
19892;DHT22;10108;50.142;8.724;2023-01-24T03:29:58;3.60;99.90
19892;DHT22;10108;50.142;8.724;2023-01-24T03:32:43;3.70;99.90
19892;DHT22;10108;50.142;8.724;2023-01-24T03:35:28;3.70;99.90
19892;DHT22;10108;50.142;8.724;2023-01-24T03:37:55;3.70;99.90
19892;DHT22;10108;50.142;8.724;2023-01-24T03:40:40;3.70;99.90
19892;DHT22;10108;50.142;8.724;2023-01-24T03:43:06;3.70;99.90
19892;DHT22;10108;50.142;8.724;2023-01-24T03:45:37;3.80;99.90
19892;DHT22;10108;50.142;8.724;2023-01-24T03:48:09;3.80;99.90
19892;DHT22;10108;50.142;8.724;2023-01-24T03:50:42;3.80;99.90
19892;DHT22;10108;50.142;8.724;2023-01-24T03:53:33;3.80;99.90
19892;DHT22;10108;50.142;8.724;2023-01-24T03:56:01;3.80;99.90
19892;DHT22;10108;50.142;8.724;2023-01-24T03:58:32;3.80;99.90
19892;DHT22;10108;50.142;8.724;2023-01-24T04:01:01;3.80;99.90
19892;DHT22;10108;50.142;8.724;2023-01-24T04:03:45;3.90;99.90
19892;DHT22;10108;50.142;8.724;2023-01-24T04:06:11;3.90;99.90
19892;DHT22;10108;50.142;8.724;2023-01-24T04:08:38;4.00;99.90
19892;DHT22;10108;50.142;8.724;2023-01-24T04:11:04;4.00;99.90
19892;DHT22;10108;50.142;8.724;2023-01-24T04:13:30;4.00;99.90
19892;DHT22;10108;50.142;8.724;2023-01-24T04:15:58;4.00;99.90
19892;DHT22;10108;50.142;8.724;2023-01-24T04:18:44;4.10;99.90
19892;DHT22;10108;50.142;8.724;2023-01-24T04:21:10;4.10;99.90
19892;DHT22;10108;50.142;8.724;2023-01-24T04:23:37;4.10;99.90
19892;DHT22;10108;50.142;8.724;2023-01-24T04:26:04;4.10;99.90
19892;DHT22;10108;50.142;8.724;2023-01-24T04:28:31;4.10;99.90
19892;DHT22;10108;50.142;8.724;2023-01-24T04:31:01;4.10;99.90
19892;DHT22;10108;50.142;8.724;2023-01-24T04:34:07;4.10;99.90
19892;DHT22;10108;50.142;8.724;2023-01-24T04:36:36;4.00;99.90
19892;DHT22;10108;50.142;8.724;2023-01-24T04:39:03;4.00;99.90
19892;DHT22;10108;50.142;8.724;2023-01-24T04:41:40;4.00;99.90
19892;DHT22;10108;50.142;8.724;2023-01-24T04:44:06;3.90;99.90
19892;DHT22;10108;50.142;8.724;2023-01-24T04:46:32;4.00;99.90
19892;DHT22;10108;50.142;8.724;2023-01-24T04:48:59;3.90;99.90
19892;DHT22;10108;50.142;8.724;2023-01-24T04:51:34;4.00;99.90
19892;DHT22;10108;50.142;8.724;2023-01-24T04:54:03;4.00;99.90
19892;DHT22;10108;50.142;8.724;2023-01-24T04:56:30;4.00;99.90
19892;DHT22;10108;50.142;8.724;2023-01-24T04:58:57;4.00;99.90
19892;DHT22;10108;50.142;8.724;2023-01-24T05:01:24;4.00;99.90
19892;DHT22;10108;50.142;8.724;2023-01-24T05:03:59;4.10;99.90
19892;DHT22;10108;50.142;8.724;2023-01-24T05:06:26;4.00;99.90
19892;DHT22;10108;50.142;8.724;2023-01-24T05:08:53;4.00;99.90
19892;DHT22;10108;50.142;8.724;2023-01-24T05:11:26;4.10;99.90
19892;DHT22;10108;50.142;8.724;2023-01-24T05:13:55;4.00;99.90
19892;DHT22;10108;50.142;8.724;2023-01-24T05:16:21;4.00;99.90
19892;DHT22;10108;50.142;8.724;2023-01-24T05:18:48;4.00;99.90
19892;DHT22;10108;50.142;8.724;2023-01-24T05:21:17;4.10;99.90
19892;DHT22;10108;50.142;8.724;2023-01-24T05:23:49;4.10;99.90
19892;DHT22;10108;50.142;8.724;2023-01-24T05:26:18;4.00;99.90
19892;DHT22;10108;50.142;8.724;2023-01-24T05:28:48;4.10;99.90
19892;DHT22;10108;50.142;8.724;2023-01-24T05:31:14;4.00;99.90
19892;DHT22;10108;50.142;8.724;2023-01-24T05:33:42;4.10;99.90
19892;DHT22;10108;50.142;8.724;2023-01-24T05:36:10;4.00;99.90
19892;DHT22;10108;50.142;8.724;2023-01-24T05:38:37;4.00;99.90
19892;DHT22;10108;50.142;8.724;2023-01-24T05:41:09;4.00;99.90
19892;DHT22;10108;50.142;8.724;2023-01-24T05:43:36;4.10;99.90
19892;DHT22;10108;50.142;8.724;2023-01-24T05:46:11;4.10;99.90
19892;DHT22;10108;50.142;8.724;2023-01-24T05:48:45;4.10;99.90
19892;DHT22;10108;50.142;8.724;2023-01-24T05:51:13;4.10;99.90
19892;DHT22;10108;50.142;8.724;2023-01-24T05:53:40;4.20;99.90
19892;DHT22;10108;50.142;8.724;2023-01-24T05:56:13;4.20;99.90
19892;DHT22;10108;50.142;8.724;2023-01-24T05:58:41;4.20;99.90
19892;DHT22;10108;50.142;8.724;2023-01-24T06:01:12;4.20;99.90
19892;DHT22;10108;50.142;8.724;2023-01-24T06:03:44;4.20;99.90
19892;DHT22;10108;50.142;8.724;2023-01-24T06:06:12;4.30;99.90
19892;DHT22;10108;50.142;8.724;2023-01-24T06:08:39;4.30;99.90
19892;DHT22;10108;50.142;8.724;2023-01-24T06:11:07;4.20;99.90
19892;DHT22;10108;50.142;8.724;2023-01-24T06:13:35;4.20;99.90
19892;DHT22;10108;50.142;8.724;2023-01-24T06:16:12;4.20;99.90
19892;DHT22;10108;50.142;8.724;2023-01-24T06:18:39;4.20;99.90
19892;DHT22;10108;50.142;8.724;2023-01-24T06:23:47;4.20;99.90
19892;DHT22;10108;50.142;8.724;2023-01-24T06:26:14;4.20;99.90
19892;DHT22;10108;50.142;8.724;2023-01-24T06:28:40;4.20;99.90
19892;DHT22;10108;50.142;8.724;2023-01-24T06:39:10;4.20;99.90
19892;DHT22;10108;50.142;8.724;2023-01-24T06:41:39;4.20;99.90
19892;DHT22;10108;50.142;8.724;2023-01-24T06:44:06;4.20;99.90
19892;DHT22;10108;50.142;8.724;2023-01-24T06:46:33;4.20;99.90
19892;DHT22;10108;50.142;8.724;2023-01-24T06:48:59;4.20;99.90
19892;DHT22;10108;50.142;8.724;2023-01-24T06:51:25;4.20;99.90
19892;DHT22;10108;50.142;8.724;2023-01-24T06:53:51;4.20;99.90
19892;DHT22;10108;50.142;8.724;2023-01-24T06:56:17;4.20;99.90
19892;DHT22;10108;50.142;8.724;2023-01-24T06:58:43;4.20;99.90
19892;DHT22;10108;50.142;8.724;2023-01-24T07:01:09;4.30;99.90
19892;DHT22;10108;50.142;8.724;2023-01-24T07:03:35;4.20;99.90
19892;DHT22;10108;50.142;8.724;2023-01-24T07:06:02;4.20;99.90
19892;DHT22;10108;50.142;8.724;2023-01-24T07:08:28;4.20;99.90
19892;DHT22;10108;50.142;8.724;2023-01-24T07:10:57;4.30;99.90
19892;DHT22;10108;50.142;8.724;2023-01-24T07:13:24;4.30;99.90
19892;DHT22;10108;50.142;8.724;2023-01-24T07:15:51;4.30;99.90
19892;DHT22;10108;50.142;8.724;2023-01-24T07:18:18;4.30;99.90
19892;DHT22;10108;50.142;8.724;2023-01-24T07:20:45;4.30;99.90
19892;DHT22;10108;50.142;8.724;2023-01-24T07:25:42;4.40;99.90
19892;DHT22;10108;50.142;8.724;2023-01-24T07:28:08;4.40;99.90
19892;DHT22;10108;50.142;8.724;2023-01-24T07:30:35;4.40;99.90
19892;DHT22;10108;50.142;8.724;2023-01-24T07:33:01;4.40;99.90
19892;DHT22;10108;50.142;8.724;2023-01-24T07:35:27;4.40;99.90
19892;DHT22;10108;50.142;8.724;2023-01-24T07:37:55;4.40;99.90
19892;DHT22;10108;50.142;8.724;2023-01-24T07:40:21;4.30;99.90
19892;DHT22;10108;50.142;8.724;2023-01-24T07:42:47;4.40;99.90
19892;DHT22;10108;50.142;8.724;2023-01-24T07:45:13;4.40;99.90
19892;DHT22;10108;50.142;8.724;2023-01-24T07:47:39;4.40;99.90
19892;DHT22;10108;50.142;8.724;2023-01-24T07:50:05;4.30;99.90
19892;DHT22;10108;50.142;8.724;2023-01-24T07:52:32;4.30;99.90
19892;DHT22;10108;50.142;8.724;2023-01-24T07:54:58;4.30;99.90
19892;DHT22;10108;50.142;8.724;2023-01-24T07:57:24;4.30;99.90
19892;DHT22;10108;50.142;8.724;2023-01-24T07:59:50;4.30;99.90
19892;DHT22;10108;50.142;8.724;2023-01-24T08:02:16;4.30;99.90
19892;DHT22;10108;50.142;8.724;2023-01-24T08:04:42;4.30;99.90
19892;DHT22;10108;50.142;8.724;2023-01-24T08:07:08;4.30;99.90
19892;DHT22;10108;50.142;8.724;2023-01-24T08:09:45;4.40;99.90
19892;DHT22;10108;50.142;8.724;2023-01-24T08:12:11;4.40;99.90
19892;DHT22;10108;50.142;8.724;2023-01-24T08:14:37;4.30;99.90
19892;DHT22;10108;50.142;8.724;2023-01-24T08:17:03;4.30;99.90
19892;DHT22;10108;50.142;8.724;2023-01-24T08:19:29;4.30;99.90
19892;DHT22;10108;50.142;8.724;2023-01-24T08:21:57;4.30;99.90
19892;DHT22;10108;50.142;8.724;2023-01-24T08:24:23;4.30;99.90
19892;DHT22;10108;50.142;8.724;2023-01-24T08:26:49;4.40;99.90
19892;DHT22;10108;50.142;8.724;2023-01-24T08:29:17;4.40;99.90
19892;DHT22;10108;50.142;8.724;2023-01-24T08:31:43;4.40;99.90
19892;DHT22;10108;50.142;8.724;2023-01-24T08:34:10;4.40;99.90
19892;DHT22;10108;50.142;8.724;2023-01-24T08:36:36;4.50;99.90
19892;DHT22;10108;50.142;8.724;2023-01-24T08:39:02;4.50;99.90
19892;DHT22;10108;50.142;8.724;2023-01-24T08:41:30;4.50;99.90
19892;DHT22;10108;50.142;8.724;2023-01-24T08:43:56;4.50;99.90
19892;DHT22;10108;50.142;8.724;2023-01-24T08:46:22;4.50;99.90
19892;DHT22;10108;50.142;8.724;2023-01-24T08:48:48;4.50;99.90
19892;DHT22;10108;50.142;8.724;2023-01-24T08:51:14;4.50;99.90
19892;DHT22;10108;50.142;8.724;2023-01-24T08:53:40;4.50;99.90
19892;DHT22;10108;50.142;8.724;2023-01-24T08:56:06;4.50;99.90
19892;DHT22;10108;50.142;8.724;2023-01-24T08:58:33;4.50;99.90
19892;DHT22;10108;50.142;8.724;2023-01-24T09:00:59;4.60;99.90
19892;DHT22;10108;50.142;8.724;2023-01-24T09:03:26;4.60;99.90
19892;DHT22;10108;50.142;8.724;2023-01-24T09:05:56;4.60;99.90
19892;DHT22;10108;50.142;8.724;2023-01-24T09:08:26;4.60;99.90
19892;DHT22;10108;50.142;8.724;2023-01-24T09:10:52;4.60;99.90
19892;DHT22;10108;50.142;8.724;2023-01-24T09:13:18;4.60;99.90
19892;DHT22;10108;50.142;8.724;2023-01-24T09:15:44;4.60;99.90
19892;DHT22;10108;50.142;8.724;2023-01-24T09:18:10;4.50;99.90
19892;DHT22;10108;50.142;8.724;2023-01-24T09:20:36;4.60;99.90
19892;DHT22;10108;50.142;8.724;2023-01-24T09:23:10;4.60;99.90
19892;DHT22;10108;50.142;8.724;2023-01-24T09:25:38;4.60;99.90
19892;DHT22;10108;50.142;8.724;2023-01-24T09:28:04;4.60;99.90
19892;DHT22;10108;50.142;8.724;2023-01-24T09:30:31;4.60;99.90
19892;DHT22;10108;50.142;8.724;2023-01-24T09:32:57;4.60;99.90
19892;DHT22;10108;50.142;8.724;2023-01-24T09:35:23;4.60;99.90
19892;DHT22;10108;50.142;8.724;2023-01-24T09:37:51;4.60;99.90
19892;DHT22;10108;50.142;8.724;2023-01-24T09:40:21;4.60;99.90
19892;DHT22;10108;50.142;8.724;2023-01-24T09:45:33;4.70;99.90
19892;DHT22;10108;50.142;8.724;2023-01-24T09:48:03;4.70;99.90
19892;DHT22;10108;50.142;8.724;2023-01-24T09:53:26;4.70;99.90
19892;DHT22;10108;50.142;8.724;2023-01-24T09:55:53;4.70;99.90
19892;DHT22;10108;50.142;8.724;2023-01-24T09:58:32;4.70;99.90
19892;DHT22;10108;50.142;8.724;2023-01-24T10:01:04;4.70;99.90
19892;DHT22;10108;50.142;8.724;2023-01-24T10:03:32;4.70;99.90
19892;DHT22;10108;50.142;8.724;2023-01-24T10:06:05;4.70;99.90
19892;DHT22;10108;50.142;8.724;2023-01-24T10:11:51;4.80;99.90
19892;DHT22;10108;50.142;8.724;2023-01-24T10:14:31;4.80;99.90
19892;DHT22;10108;50.142;8.724;2023-01-24T10:20:17;4.80;99.90
19892;DHT22;10108;50.142;8.724;2023-01-24T10:23:05;4.80;99.90
19892;DHT22;10108;50.142;8.724;2023-01-24T10:25:49;4.80;99.90
19892;DHT22;10108;50.142;8.724;2023-01-24T10:28:20;4.90;99.90
19892;DHT22;10108;50.142;8.724;2023-01-24T10:30:56;4.90;99.90
19892;DHT22;10108;50.142;8.724;2023-01-24T10:33:30;4.90;99.90
19892;DHT22;10108;50.142;8.724;2023-01-24T10:36:01;4.90;99.90
19892;DHT22;10108;50.142;8.724;2023-01-24T10:38:29;5.00;99.90
19892;DHT22;10108;50.142;8.724;2023-01-24T10:41:14;5.00;99.90
19892;DHT22;10108;50.142;8.724;2023-01-24T10:43:43;5.00;99.90
19892;DHT22;10108;50.142;8.724;2023-01-24T10:46:25;5.00;99.90
19892;DHT22;10108;50.142;8.724;2023-01-24T10:48:56;5.00;99.90
19892;DHT22;10108;50.142;8.724;2023-01-24T10:51:24;5.10;99.90
19892;DHT22;10108;50.142;8.724;2023-01-24T10:53:50;5.10;99.90
19892;DHT22;10108;50.142;8.724;2023-01-24T10:56:19;5.10;99.90
19892;DHT22;10108;50.142;8.724;2023-01-24T10:59:04;5.10;99.90
19892;DHT22;10108;50.142;8.724;2023-01-24T11:01:38;5.10;99.90
19892;DHT22;10108;50.142;8.724;2023-01-24T11:04:26;5.10;99.90
19892;DHT22;10108;50.142;8.724;2023-01-24T11:06:54;5.00;99.90
19892;DHT22;10108;50.142;8.724;2023-01-24T11:09:29;5.00;99.90
19892;DHT22;10108;50.142;8.724;2023-01-24T11:11:58;5.00;99.90
19892;DHT22;10108;50.142;8.724;2023-01-24T11:14:27;5.00;99.90
19892;DHT22;10108;50.142;8.724;2023-01-24T11:16:56;5.10;99.90
19892;DHT22;10108;50.142;8.724;2023-01-24T11:19:27;5.10;99.90
19892;DHT22;10108;50.142;8.724;2023-01-24T11:21:59;5.10;99.90
19892;DHT22;10108;50.142;8.724;2023-01-24T11:24:27;5.10;99.90
19892;DHT22;10108;50.142;8.724;2023-01-24T11:27:13;5.10;99.90
19892;DHT22;10108;50.142;8.724;2023-01-24T11:29:40;5.10;99.90
19892;DHT22;10108;50.142;8.724;2023-01-24T11:35:44;5.10;99.90
19892;DHT22;10108;50.142;8.724;2023-01-24T11:49:15;5.10;99.90
19892;DHT22;10108;50.142;8.724;2023-01-24T11:57:26;5.20;99.90
19892;DHT22;10108;50.142;8.724;2023-01-24T12:00:24;5.20;99.90
19892;DHT22;10108;50.142;8.724;2023-01-24T12:03:17;5.20;99.90
19892;DHT22;10108;50.142;8.724;2023-01-24T12:09:09;5.20;99.90
19892;DHT22;10108;50.142;8.724;2023-01-24T12:14:33;5.30;99.90
19892;DHT22;10108;50.142;8.724;2023-01-24T12:23:21;5.20;99.90
19892;DHT22;10108;50.142;8.724;2023-01-24T12:25:51;5.20;99.90
19892;DHT22;10108;50.142;8.724;2023-01-24T12:28:36;5.20;99.90
19892;DHT22;10108;50.142;8.724;2023-01-24T12:31:06;5.30;99.90
19892;DHT22;10108;50.142;8.724;2023-01-24T12:33:42;5.20;99.90
19892;DHT22;10108;50.142;8.724;2023-01-24T12:38:58;5.20;99.90
19892;DHT22;10108;50.142;8.724;2023-01-24T12:41:31;5.20;99.90
19892;DHT22;10108;50.142;8.724;2023-01-24T12:49:45;5.30;99.90
19892;DHT22;10108;50.142;8.724;2023-01-24T12:52:26;5.30;99.90
19892;DHT22;10108;50.142;8.724;2023-01-24T12:54:54;5.20;99.90
19892;DHT22;10108;50.142;8.724;2023-01-24T12:57:39;5.20;99.90
19892;DHT22;10108;50.142;8.724;2023-01-24T13:00:20;5.20;99.90
19892;DHT22;10108;50.142;8.724;2023-01-24T13:11:18;5.30;99.90
19892;DHT22;10108;50.142;8.724;2023-01-24T13:22:54;5.30;99.90
19892;DHT22;10108;50.142;8.724;2023-01-24T13:28:32;5.30;99.90
19892;DHT22;10108;50.142;8.724;2023-01-24T13:31:23;5.30;99.90
19892;DHT22;10108;50.142;8.724;2023-01-24T13:34:04;5.30;99.90
19892;DHT22;10108;50.142;8.724;2023-01-24T13:36:37;5.30;99.90
19892;DHT22;10108;50.142;8.724;2023-01-24T13:39:05;5.20;99.90
19892;DHT22;10108;50.142;8.724;2023-01-24T13:41:35;5.20;99.90
19892;DHT22;10108;50.142;8.724;2023-01-24T13:55:01;5.20;99.90
19892;DHT22;10108;50.142;8.724;2023-01-24T13:57:34;5.20;99.90
19892;DHT22;10108;50.142;8.724;2023-01-24T14:10:48;5.30;99.90
19892;DHT22;10108;50.142;8.724;2023-01-24T14:21:27;5.30;99.90
19892;DHT22;10108;50.142;8.724;2023-01-24T14:26:58;5.30;99.90
19892;DHT22;10108;50.142;8.724;2023-01-24T14:29:53;5.30;99.90
19892;DHT22;10108;50.142;8.724;2023-01-24T14:32:33;5.20;99.90
19892;DHT22;10108;50.142;8.724;2023-01-24T14:35:31;5.30;99.90
19892;DHT22;10108;50.142;8.724;2023-01-24T14:38:15;5.30;99.90
19892;DHT22;10108;50.142;8.724;2023-01-24T14:40:42;5.30;99.90
19892;DHT22;10108;50.142;8.724;2023-01-24T14:43:11;5.30;99.90
19892;DHT22;10108;50.142;8.724;2023-01-24T14:45:37;5.30;99.90
19892;DHT22;10108;50.142;8.724;2023-01-24T14:48:09;5.20;99.90
19892;DHT22;10108;50.142;8.724;2023-01-24T14:50:37;5.30;99.90
19892;DHT22;10108;50.142;8.724;2023-01-24T14:53:24;5.30;99.90
19892;DHT22;10108;50.142;8.724;2023-01-24T14:55:52;5.20;99.90
19892;DHT22;10108;50.142;8.724;2023-01-24T14:58:25;5.20;99.90
19892;DHT22;10108;50.142;8.724;2023-01-24T15:00:57;5.20;99.90
19892;DHT22;10108;50.142;8.724;2023-01-24T15:03:27;5.20;99.90
19892;DHT22;10108;50.142;8.724;2023-01-24T15:08:20;5.20;99.90
19892;DHT22;10108;50.142;8.724;2023-01-24T15:10:56;5.30;99.90
19892;DHT22;10108;50.142;8.724;2023-01-24T15:13:27;5.30;99.90
19892;DHT22;10108;50.142;8.724;2023-01-24T15:15:55;5.30;99.90
19892;DHT22;10108;50.142;8.724;2023-01-24T15:23:51;5.20;99.90
19892;DHT22;10108;50.142;8.724;2023-01-24T15:26:34;5.20;99.90
19892;DHT22;10108;50.142;8.724;2023-01-24T15:32:30;5.20;99.90
19892;DHT22;10108;50.142;8.724;2023-01-24T15:40:53;5.10;99.90
19892;DHT22;10108;50.142;8.724;2023-01-24T15:43:37;5.20;99.90
19892;DHT22;10108;50.142;8.724;2023-01-24T15:49:28;5.10;99.90
19892;DHT22;10108;50.142;8.724;2023-01-24T15:54:35;5.10;99.90
19892;DHT22;10108;50.142;8.724;2023-01-24T15:57:19;5.10;99.90
19892;DHT22;10108;50.142;8.724;2023-01-24T15:59:48;5.10;99.90
19892;DHT22;10108;50.142;8.724;2023-01-24T16:02:15;5.10;99.90
19892;DHT22;10108;50.142;8.724;2023-01-24T16:04:42;5.10;99.90
19892;DHT22;10108;50.142;8.724;2023-01-24T16:07:08;5.10;99.90
19892;DHT22;10108;50.142;8.724;2023-01-24T16:09:34;5.10;99.90
19892;DHT22;10108;50.142;8.724;2023-01-24T16:12:01;5.10;99.90
19892;DHT22;10108;50.142;8.724;2023-01-24T16:14:27;5.00;99.90
19892;DHT22;10108;50.142;8.724;2023-01-24T16:16:56;5.00;99.90
19892;DHT22;10108;50.142;8.724;2023-01-24T16:19:25;5.10;99.90
19892;DHT22;10108;50.142;8.724;2023-01-24T16:21:53;5.00;99.90
19892;DHT22;10108;50.142;8.724;2023-01-24T16:24:19;5.00;99.90
19892;DHT22;10108;50.142;8.724;2023-01-24T16:26:48;5.00;99.90
19892;DHT22;10108;50.142;8.724;2023-01-24T16:29:21;5.00;99.90
19892;DHT22;10108;50.142;8.724;2023-01-24T16:31:48;4.90;99.90
19892;DHT22;10108;50.142;8.724;2023-01-24T16:34:14;4.90;99.90
19892;DHT22;10108;50.142;8.724;2023-01-24T16:36:41;4.90;99.90
19892;DHT22;10108;50.142;8.724;2023-01-24T16:39:13;5.00;99.90
19892;DHT22;10108;50.142;8.724;2023-01-24T16:41:39;5.00;99.90
19892;DHT22;10108;50.142;8.724;2023-01-24T16:44:06;5.00;99.90
19892;DHT22;10108;50.142;8.724;2023-01-24T16:46:32;5.10;99.90
19892;DHT22;10108;50.142;8.724;2023-01-24T16:48:58;5.10;99.90
19892;DHT22;10108;50.142;8.724;2023-01-24T16:51:25;5.10;99.90
19892;DHT22;10108;50.142;8.724;2023-01-24T16:53:54;5.10;99.90
19892;DHT22;10108;50.142;8.724;2023-01-24T16:56:22;5.10;99.90
19892;DHT22;10108;50.142;8.724;2023-01-24T16:58:48;5.10;99.90
19892;DHT22;10108;50.142;8.724;2023-01-24T17:01:14;5.10;99.90
19892;DHT22;10108;50.142;8.724;2023-01-24T17:03:40;5.00;99.90
19892;DHT22;10108;50.142;8.724;2023-01-24T17:06:11;5.00;99.90
19892;DHT22;10108;50.142;8.724;2023-01-24T17:08:39;5.00;99.90
19892;DHT22;10108;50.142;8.724;2023-01-24T17:11:07;5.00;99.90
19892;DHT22;10108;50.142;8.724;2023-01-24T17:13:33;5.00;99.90
19892;DHT22;10108;50.142;8.724;2023-01-24T17:16:10;5.00;99.90
19892;DHT22;10108;50.142;8.724;2023-01-24T17:18:36;5.00;99.90
19892;DHT22;10108;50.142;8.724;2023-01-24T17:21:04;5.00;99.90
19892;DHT22;10108;50.142;8.724;2023-01-24T17:23:32;5.00;99.90
19892;DHT22;10108;50.142;8.724;2023-01-24T17:26:06;5.00;99.90
19892;DHT22;10108;50.142;8.724;2023-01-24T17:28:33;5.00;99.90
19892;DHT22;10108;50.142;8.724;2023-01-24T17:30:59;4.90;99.90
19892;DHT22;10108;50.142;8.724;2023-01-24T17:33:25;4.90;99.90
19892;DHT22;10108;50.142;8.724;2023-01-24T17:35:51;4.80;99.90
19892;DHT22;10108;50.142;8.724;2023-01-24T17:38:17;4.80;99.90
19892;DHT22;10108;50.142;8.724;2023-01-24T17:40:44;4.90;99.90
19892;DHT22;10108;50.142;8.724;2023-01-24T17:43:10;4.90;99.90
19892;DHT22;10108;50.142;8.724;2023-01-24T17:45:36;4.90;99.90
19892;DHT22;10108;50.142;8.724;2023-01-24T17:48:03;4.90;99.90
19892;DHT22;10108;50.142;8.724;2023-01-24T17:50:29;4.90;99.90
19892;DHT22;10108;50.142;8.724;2023-01-24T17:52:56;4.90;99.90
19892;DHT22;10108;50.142;8.724;2023-01-24T17:55:22;4.90;99.90
19892;DHT22;10108;50.142;8.724;2023-01-24T17:57:48;4.90;99.90
19892;DHT22;10108;50.142;8.724;2023-01-24T18:00:14;4.90;99.90
19892;DHT22;10108;50.142;8.724;2023-01-24T18:02:40;4.90;99.90
19892;DHT22;10108;50.142;8.724;2023-01-24T18:05:07;5.00;99.90
19892;DHT22;10108;50.142;8.724;2023-01-24T18:07:34;5.00;99.90
19892;DHT22;10108;50.142;8.724;2023-01-24T18:10:00;5.00;99.90
19892;DHT22;10108;50.142;8.724;2023-01-24T18:12:26;5.00;99.90
19892;DHT22;10108;50.142;8.724;2023-01-24T18:14:52;5.00;99.90
19892;DHT22;10108;50.142;8.724;2023-01-24T18:17:18;5.00;99.90
19892;DHT22;10108;50.142;8.724;2023-01-24T18:19:44;5.10;99.90
19892;DHT22;10108;50.142;8.724;2023-01-24T18:22:11;5.00;99.90
19892;DHT22;10108;50.142;8.724;2023-01-24T18:24:38;5.00;99.90
19892;DHT22;10108;50.142;8.724;2023-01-24T18:27:04;5.00;99.90
19892;DHT22;10108;50.142;8.724;2023-01-24T18:29:30;5.00;99.90
19892;DHT22;10108;50.142;8.724;2023-01-24T18:31:56;5.00;99.90
19892;DHT22;10108;50.142;8.724;2023-01-24T18:34:22;5.00;99.90
19892;DHT22;10108;50.142;8.724;2023-01-24T18:36:49;5.00;99.90